createdAt,value
2022-12-10T00:03:58.140Z,12.18
2022-12-10T00:07:59.621Z,13.85
2022-12-10T00:12:01.067Z,12.65
2022-12-10T00:16:04.136Z,12.35
2022-12-10T00:20:06.493Z,13.63
2022-12-10T00:24:08.418Z,12.70
2022-12-10T00:28:09.905Z,13.80
2022-12-10T00:32:11.373Z,13.45
2022-12-10T00:36:18.963Z,12.30
2022-12-10T00:40:20.450Z,13.23
2022-12-10T00:44:22.093Z,11.98
2022-12-10T00:48:23.896Z,11.40
2022-12-10T00:52:25.518Z,10.88
2022-12-10T00:56:33.317Z,11.55
2022-12-10T01:00:34.773Z,10.82
2022-12-10T01:04:36.294Z,11.38
2022-12-10T01:08:38.327Z,12.27
2022-12-10T01:12:39.757Z,10.85
2022-12-10T01:16:41.357Z,13.52
2022-12-10T01:20:42.830Z,11.95
2022-12-10T01:24:44.354Z,10.98
2022-12-10T01:28:46.441Z,11.30
2022-12-10T01:32:47.869Z,12.02
2022-12-10T01:36:52.422Z,10.90
2022-12-10T01:40:53.882Z,12.50
2022-12-10T01:45:00.000Z,12.50
2022-12-10T01:49:04.928Z,13.00
2022-12-10T01:53:07.142Z,11.52
2022-12-10T01:57:10.576Z,12.18
2022-12-10T02:01:12.035Z,14.00
2022-12-10T02:05:26.318Z,11.13
2022-12-10T02:09:45.059Z,12.57
2022-12-10T02:13:56.788Z,13.10
2022-12-10T02:18:05.524Z,12.77
2022-12-10T02:22:08.804Z,12.32
2022-12-10T02:26:17.654Z,13.60
2022-12-10T02:30:19.919Z,12.83
2022-12-10T02:34:24.048Z,12.40
2022-12-10T02:38:32.942Z,11.25
2022-12-10T02:42:38.958Z,13.37
2022-12-10T02:46:42.960Z,14.32
2022-12-10T02:50:44.460Z,11.93
2022-12-10T02:54:48.254Z,11.23
2022-12-10T02:59:07.478Z,12.57
2022-12-10T03:03:24.149Z,12.38
2022-12-10T03:07:50.498Z,12.38
2022-12-10T03:12:03.122Z,11.48
2022-12-10T03:16:05.850Z,11.18
2022-12-10T03:20:13.748Z,11.75
2022-12-10T03:24:17.360Z,12.07
2022-12-10T03:28:21.022Z,10.73
2022-12-10T03:32:25.984Z,11.88
2022-12-10T03:36:29.706Z,11.50
2022-12-10T03:40:32.582Z,11.27
2022-12-10T03:44:36.683Z,11.93
2022-12-10T03:48:38.105Z,13.88
2022-12-10T03:52:39.593Z,12.25
2022-12-10T03:56:41.154Z,13.00
2022-12-10T04:00:42.619Z,13.45
2022-12-10T04:04:44.211Z,11.10
2022-12-10T04:08:46.862Z,11.82
2022-12-10T04:13:08.269Z,11.80
2022-12-10T04:17:09.951Z,12.15
2022-12-10T04:21:30.093Z,13.52
2022-12-10T04:25:49.858Z,12.75
2022-12-10T04:29:51.603Z,12.18
2022-12-10T04:33:53.041Z,13.85
2022-12-10T04:37:54.441Z,13.07
2022-12-10T04:41:55.896Z,12.05
2022-12-10T04:45:57.532Z,11.73
2022-12-10T04:49:59.036Z,14.15
2022-12-10T04:54:01.030Z,10.02
2022-12-10T04:58:02.972Z,13.45
2022-12-10T05:02:05.973Z,12.18
2022-12-10T05:06:13.234Z,11.60
2022-12-10T05:10:14.794Z,12.65
2022-12-10T05:14:16.600Z,13.77
2022-12-10T05:18:18.030Z,15.15
2022-12-10T05:22:37.984Z,11.40
2022-12-10T05:26:39.501Z,12.45
2022-12-10T05:30:40.987Z,14.30
2022-12-10T05:34:42.427Z,12.90
2022-12-10T05:38:44.490Z,11.95
2022-12-10T05:42:47.013Z,12.70
2022-12-10T05:46:48.475Z,12.35
2022-12-10T05:50:49.925Z,12.45
2022-12-10T05:54:51.357Z,12.07
2022-12-10T05:58:57.696Z,13.07
2022-12-10T06:02:59.171Z,13.38
2022-12-10T06:07:00.615Z,13.40
2022-12-10T06:11:06.947Z,13.50
2022-12-10T06:15:08.868Z,11.63
2022-12-10T06:19:10.361Z,12.38
2022-12-10T06:23:11.753Z,15.85
2022-12-10T06:27:13.222Z,11.98
2022-12-10T06:31:16.279Z,12.15
2022-12-10T06:35:18.117Z,11.40
2022-12-10T06:39:19.534Z,11.38
2022-12-10T06:43:21.017Z,11.85
2022-12-10T06:47:22.558Z,10.05
2022-12-10T06:51:24.026Z,10.93
2022-12-10T06:55:25.464Z,11.30
2022-12-10T06:59:26.951Z,10.23
2022-12-10T07:03:28.415Z,11.70
2022-12-10T07:07:29.939Z,11.48
2022-12-10T07:11:31.924Z,11.85
2022-12-10T07:15:33.414Z,10.85
2022-12-10T07:19:34.897Z,11.38
2022-12-10T07:23:36.327Z,11.55
2022-12-10T07:27:38.315Z,12.60
2022-12-10T07:31:39.914Z,11.88
2022-12-10T07:35:46.003Z,10.98
2022-12-10T07:39:48.861Z,11.10
2022-12-10T07:43:50.927Z,10.68
2022-12-10T07:47:52.366Z,11.43
2022-12-10T07:51:53.802Z,10.25
2022-12-10T07:55:55.612Z,10.98
2022-12-10T07:59:57.032Z,11.10
2022-12-10T08:03:58.553Z,10.50
2022-12-10T08:08:04.083Z,11.27
2022-12-10T08:12:08.202Z,9.55
2022-12-10T08:16:14.202Z,9.70
2022-12-10T08:20:15.702Z,9.40
2022-12-10T08:24:17.125Z,10.07
2022-12-10T08:28:18.567Z,10.35
2022-12-10T08:32:19.996Z,9.63
2022-12-10T08:36:21.508Z,10.95
2022-12-10T08:40:22.967Z,10.13
2022-12-10T08:44:24.378Z,9.07
2022-12-10T08:48:25.837Z,9.43
2022-12-10T08:52:30.112Z,10.45
2022-12-10T08:56:31.890Z,10.55
2022-12-10T09:00:33.388Z,10.05
2022-12-10T09:04:34.812Z,11.00
2022-12-10T09:08:36.766Z,9.38
2022-12-10T09:12:38.358Z,9.23
2022-12-10T09:16:40.251Z,9.52
2022-12-10T09:20:41.720Z,11.52
2022-12-10T09:24:43.197Z,9.93
2022-12-10T09:28:46.181Z,9.93
2022-12-10T09:32:47.591Z,10.27
2022-12-10T09:36:49.059Z,10.70
2022-12-10T09:41:49.114Z,9.88
2022-12-10T09:46:24.903Z,11.73
2022-12-10T09:50:28.972Z,10.27
2022-12-10T09:54:59.688Z,9.80
2022-12-10T09:59:11.752Z,10.63
2022-12-10T10:03:15.401Z,10.35
2022-12-10T10:07:29.899Z,10.35
2022-12-10T10:11:34.161Z,10.20
2022-12-10T10:15:38.638Z,10.05
2022-12-10T10:19:42.117Z,9.93
2022-12-10T10:23:45.904Z,9.63
2022-12-10T10:27:47.703Z,10.55
2022-12-10T10:32:14.042Z,9.65
2022-12-10T10:36:15.556Z,10.82
2022-12-10T10:40:37.198Z,11.32
2022-12-10T10:44:39.756Z,10.52
2022-12-10T10:48:41.256Z,10.75
2022-12-10T10:52:43.009Z,8.80
2022-12-10T10:56:44.768Z,11.88
2022-12-10T11:01:07.007Z,11.25
2022-12-10T11:05:09.713Z,10.45
2022-12-10T11:09:27.731Z,10.60
2022-12-10T11:13:31.721Z,12.43
2022-12-10T11:17:33.137Z,10.30
2022-12-10T11:21:35.598Z,10.30
2022-12-10T11:25:57.449Z,10.48
2022-12-10T11:30:05.658Z,9.85
2022-12-10T11:34:30.732Z,10.95
2022-12-10T11:38:48.224Z,12.07
2022-12-10T11:43:07.215Z,12.15
2022-12-10T11:47:30.633Z,11.82
2022-12-10T11:52:01.403Z,11.65
2022-12-10T12:00:28.541Z,10.95
2022-12-10T12:04:44.841Z,12.10
2022-12-10T12:09:13.760Z,12.13
2022-12-10T12:13:42.521Z,11.32
2022-12-10T12:17:56.689Z,12.00
2022-12-10T12:22:06.887Z,11.57
2022-12-10T12:26:14.305Z,11.75
2022-12-10T12:30:19.546Z,12.10
2022-12-10T12:34:50.405Z,11.48
2022-12-10T12:43:13.245Z,11.37
2022-12-10T12:47:32.193Z,11.10
2022-12-10T12:51:42.927Z,11.55
2022-12-10T12:56:03.155Z,11.75
2022-12-10T13:00:19.172Z,11.52
2022-12-10T13:04:21.068Z,11.65
2022-12-10T13:08:22.520Z,12.00
2022-12-10T13:12:30.793Z,11.52
2022-12-10T13:16:47.514Z,11.15
2022-12-10T13:21:29.638Z,12.20
2022-12-10T13:25:55.669Z,10.18
2022-12-10T13:30:01.428Z,12.35
2022-12-10T13:34:02.791Z,10.82
2022-12-10T13:38:20.937Z,12.32
2022-12-10T13:42:48.619Z,11.30
2022-12-10T13:46:57.590Z,12.55
2022-12-10T13:51:23.520Z,12.73
2022-12-10T13:55:47.256Z,11.77
2022-12-10T14:00:16.381Z,12.05
2022-12-10T14:04:43.384Z,13.23
2022-12-10T14:08:55.492Z,11.77
2022-12-10T14:12:57.438Z,11.43
2022-12-10T14:17:06.714Z,11.63
2022-12-10T14:21:08.665Z,10.55
2022-12-10T14:25:14.765Z,18.30
2022-12-10T14:29:28.774Z,11.20
2022-12-10T14:33:32.044Z,11.73
2022-12-10T14:37:37.092Z,11.63
2022-12-10T14:41:41.021Z,11.65
2022-12-10T14:45:51.761Z,12.43
2022-12-10T14:49:56.174Z,12.75
2022-12-10T14:53:57.671Z,11.73
2022-12-10T14:58:02.473Z,12.05
2022-12-10T15:02:15.275Z,12.30
2022-12-10T15:06:19.714Z,12.07
2022-12-10T15:10:33.441Z,12.15
2022-12-10T15:14:37.302Z,13.38
2022-12-10T15:18:39.268Z,13.32
2022-12-10T15:22:40.796Z,15.40
2022-12-10T15:26:46.694Z,12.80
2022-12-10T15:30:51.996Z,12.35
2022-12-10T15:34:59.972Z,12.93
2022-12-10T15:39:13.653Z,11.77
2022-12-10T15:43:21.231Z,12.18
2022-12-10T15:47:27.489Z,13.65
2022-12-10T15:51:28.944Z,14.63
2022-12-10T15:55:30.404Z,13.07
2022-12-10T15:59:31.850Z,12.88
2022-12-10T16:03:33.737Z,11.55
2022-12-10T16:07:35.180Z,11.98
2022-12-10T16:11:36.872Z,12.95
2022-12-10T16:16:02.071Z,11.27
2022-12-10T16:20:33.320Z,13.70
2022-12-10T16:24:34.805Z,13.25
2022-12-10T16:28:36.264Z,13.27
2022-12-10T16:32:37.716Z,15.55
2022-12-10T16:36:39.401Z,12.70
2022-12-10T16:40:43.010Z,13.68
2022-12-10T16:44:44.463Z,13.07
2022-12-10T16:48:45.949Z,13.82
2022-12-10T16:52:47.565Z,13.93
2022-12-10T16:56:49.073Z,15.57
2022-12-10T17:00:53.828Z,12.63
2022-12-10T17:04:55.637Z,14.88
2022-12-10T17:08:57.061Z,16.55
2022-12-10T17:12:58.690Z,14.45
2022-12-10T17:17:03.729Z,13.68
2022-12-10T17:21:05.413Z,14.18
2022-12-10T17:25:07.289Z,14.40
2022-12-10T17:29:30.985Z,14.52
2022-12-10T17:33:32.770Z,13.30
2022-12-10T17:37:34.592Z,13.02
2022-12-10T17:41:40.204Z,14.82
2022-12-10T17:45:43.026Z,13.48
2022-12-10T17:49:45.084Z,13.55
2022-12-10T17:53:46.974Z,12.40
2022-12-10T17:57:49.403Z,14.10
2022-12-10T18:01:51.849Z,15.30
2022-12-10T18:05:53.979Z,15.32
2022-12-10T18:09:55.685Z,14.15
2022-12-10T18:13:57.874Z,14.95
2022-12-10T18:18:00.933Z,16.15
2022-12-10T18:22:02.411Z,14.07
2022-12-10T18:26:12.088Z,16.05
2022-12-10T18:30:20.277Z,16.33
2022-12-10T18:34:21.703Z,15.65
2022-12-10T18:38:23.104Z,14.93
2022-12-10T18:42:24.619Z,13.48
2022-12-10T18:46:28.319Z,16.58
2022-12-10T18:50:30.423Z,16.30
2022-12-10T18:54:32.457Z,13.57
2022-12-10T18:58:34.188Z,13.90
2022-12-10T19:02:35.930Z,15.20
2022-12-10T19:06:38.500Z,16.45
2022-12-10T19:10:40.052Z,17.13
2022-12-10T19:14:41.656Z,16.50
2022-12-10T19:18:45.369Z,15.73
2022-12-10T19:22:46.984Z,15.98
2022-12-10T19:26:48.746Z,15.40
2022-12-10T19:30:54.505Z,14.77
2022-12-10T19:34:56.403Z,15.52
2022-12-10T19:38:58.116Z,14.82
2022-12-10T19:43:00.355Z,14.05
2022-12-10T19:47:02.273Z,14.85
2022-12-10T19:51:03.783Z,15.80
2022-12-10T19:55:07.963Z,17.48
2022-12-10T19:59:19.718Z,14.45
2022-12-10T20:03:21.514Z,14.73
2022-12-10T20:07:23.259Z,15.90
2022-12-10T20:11:25.222Z,13.48
2022-12-10T20:15:26.673Z,13.68
2022-12-10T20:19:28.203Z,15.32
2022-12-10T20:23:29.690Z,15.23
2022-12-10T20:27:31.464Z,15.00
2022-12-10T20:31:33.505Z,14.48
2022-12-10T20:35:40.989Z,15.63
2022-12-10T20:39:49.538Z,16.43
2022-12-10T20:43:58.552Z,13.57
2022-12-10T20:48:00.846Z,14.48
2022-12-10T20:52:02.716Z,14.75
2022-12-10T20:56:05.008Z,11.20
2022-12-10T21:00:15.975Z,14.00
2022-12-10T21:04:17.912Z,13.02
2022-12-10T21:08:23.292Z,13.68
2022-12-10T21:12:25.052Z,14.32
2022-12-10T21:16:26.691Z,14.68
2022-12-10T21:20:29.346Z,12.15
2022-12-10T21:24:31.248Z,13.05
2022-12-10T21:28:32.804Z,12.43
2022-12-10T21:32:34.488Z,13.50
2022-12-10T21:36:36.385Z,12.18
2022-12-10T21:40:40.951Z,11.85
2022-12-10T21:44:42.456Z,11.48
2022-12-10T21:48:43.961Z,13.77
2022-12-10T21:52:45.421Z,12.00
2022-12-10T21:56:46.998Z,12.18
2022-12-10T22:00:58.397Z,12.27
2022-12-10T22:05:00.874Z,11.85
2022-12-10T22:09:02.329Z,9.90
2022-12-10T22:13:04.021Z,10.57
2022-12-10T22:17:05.547Z,9.98
2022-12-10T22:21:07.081Z,10.45
2022-12-10T22:25:09.018Z,9.38
2022-12-10T22:29:14.126Z,10.15
2022-12-10T22:33:15.646Z,10.88
2022-12-10T22:37:17.206Z,8.85
2022-12-10T22:41:18.643Z,9.23
2022-12-10T22:45:25.479Z,9.77
2022-12-10T22:49:26.946Z,6.75
2022-12-10T22:53:37.522Z,8.70
2022-12-10T22:57:38.978Z,10.02
2022-12-10T23:01:40.579Z,9.02
2022-12-10T23:05:42.034Z,9.43
2022-12-10T23:09:44.279Z,8.80
2022-12-10T23:13:46.025Z,10.40
2022-12-10T23:17:47.483Z,10.38
2022-12-10T23:21:48.941Z,9.57
2022-12-10T23:25:51.422Z,8.80
2022-12-10T23:29:53.022Z,9.50
2022-12-10T23:33:54.465Z,9.93
2022-12-10T23:37:55.937Z,9.18
2022-12-10T23:41:57.577Z,9.32
2022-12-10T23:45:59.703Z,9.55
2022-12-10T23:50:01.189Z,7.18
2022-12-10T23:54:03.254Z,9.43
2022-12-10T23:58:04.645Z,8.45
